Aumsville, OR

7:48 AM PDT on October 30, 2014 (GMT -0700)
'Aumsville Ponds' Park | Change Station
CLOSE
Current Station
Personal Weather Station
Location: Aumsville, OR
Elevation: 377 ft
Nearby Weather Stations

Elev 377 ft 44.83 °N, 122.86 °W | Updated 8 seconds ago

Overcast
Overcast
55.0 °F
Feels Like 55.0 °F
N
0.0
Wind Variable Wind from South
Gusts 1.0 mph

Today
High -- | Low -- °F
--% Chance of Precip.
Yesterday
High -- | Low -- °F
Precip. -- in
7:46 AM 6:02 PM
Waxing Crescent, 44% visible
Pressure 29.87 in
Visibility 3.0 miles
Clouds Scattered Clouds 400 ft
Mostly Cloudy 9000 ft
Mostly Cloudy 11000 ft
Dew Point 54 °F
Humidity 97%
Rainfall 0.02 in
Snow Depth Not available.
UV 0 out of 12
Pollen .30 out of 12
Air Quality Not available.
Flu Activity Not available.
SPECI KSLE 301439Z 00000KT 3SM BR SCT004 BKN090 BKN110 13/12 A2987 RMK AO2 RAE03B21E32 P0000 T01330122

More Conditions Fewer Conditions

Pressure 29.87 in
Visibility 3.0 miles
Clouds Scattered Clouds 400 ft
Mostly Cloudy 9000 ft
Mostly Cloudy 11000 ft
Dew Point 54 °F
Humidity 97%
Rainfall 0.02 in
Snow Depth Not available.
UV 0 out of 12
Pollen .30 out of 12
Air Quality Not available.
Flu Activity Not available.
SPECI KSLE 301439Z 00000KT 3SM BR SCT004 BKN090 BKN110 13/12 A2987 RMK AO2 RAE03B21E32 P0000 T01330122

More Conditions Fewer Conditions

10-Day Weather Forecast

Almanac

Astronomy

Oct. 30, 2014 Rise Set
Actual Time
Civil Twilight
Nautical Twilight
Astronomical Twilight
Moon
Length of Visible Light
Length of Day
Tomorrow will be .
, % of the Moon is Illuminated

Today's Extremes

State Highs State Lows

Community

WunderPhotos

Upload Photos

1,766,379 photos uploaded!

WunderBlogs® & News

Nearby

Air Quality

  Air Quality AQ Index Pollutant
Not available.

Snow Depth

Station Depth Elevation

Earthquake Activity

City Distance Mag. Time & Date
Minimum magnitude displayed is 2.5.

Coastal Water Temperatures

Place Temperature

Nearby Weather Stations